createdAt,value
2022-12-04T00:00:17.574Z,23.84
2022-12-04T00:00:47.605Z,23.87
2022-12-04T00:01:17.639Z,23.85
2022-12-04T00:01:47.674Z,23.85
2022-12-04T00:02:17.703Z,23.87
2022-12-04T00:02:47.813Z,23.87
2022-12-04T00:03:17.803Z,23.84
2022-12-04T00:03:47.865Z,23.87
2022-12-04T00:04:18.023Z,23.87
2022-12-04T00:04:47.984Z,23.88
2022-12-04T00:05:17.986Z,23.87
2022-12-04T00:05:48.017Z,23.87
2022-12-04T00:06:18.055Z,23.85
2022-12-04T00:06:48.083Z,23.87
2022-12-04T00:07:18.113Z,23.87
2022-12-04T00:07:48.271Z,23.88
2022-12-04T00:08:18.254Z,23.84
2022-12-04T00:08:48.260Z,23.87
2022-12-04T00:09:18.290Z,23.85
2022-12-04T00:09:48.318Z,23.85
2022-12-04T00:10:18.352Z,23.87
2022-12-04T00:10:48.385Z,23.85
2022-12-04T00:11:18.432Z,23.85
2022-12-04T00:11:48.461Z,23.85
2022-12-04T00:12:18.505Z,23.84
2022-12-04T00:12:48.753Z,23.87
2022-12-04T00:13:18.536Z,23.84
2022-12-04T00:13:48.578Z,23.85
2022-12-04T00:14:18.601Z,23.85
2022-12-04T00:15:23.530Z,23.85
2022-12-04T00:15:26.860Z,23.87
2022-12-04T00:15:48.730Z,23.82
2022-12-04T00:16:18.892Z,23.87
2022-12-04T00:16:48.842Z,23.84
2022-12-04T00:17:18.867Z,23.87
2022-12-04T00:17:48.910Z,23.84
2022-12-04T00:18:18.970Z,23.87
2022-12-04T00:18:48.999Z,23.85
2022-12-04T00:19:19.032Z,23.84
2022-12-04T00:19:49.061Z,23.84
2022-12-04T00:20:19.091Z,23.87
2022-12-04T00:20:49.125Z,23.87
2022-12-04T00:21:19.155Z,23.85
2022-12-04T00:21:49.140Z,23.84
2022-12-04T00:22:19.140Z,23.85
2022-12-04T00:22:49.257Z,23.84
2022-12-04T00:23:19.253Z,23.85
2022-12-04T00:23:49.253Z,23.85
2022-12-04T00:24:19.377Z,23.84
2022-12-04T00:24:49.484Z,23.84
2022-12-04T00:25:19.598Z,23.85
2022-12-04T00:25:49.602Z,23.85
2022-12-04T00:26:19.722Z,23.85
2022-12-04T00:26:49.712Z,23.82
2022-12-04T00:27:19.709Z,23.85
2022-12-04T00:27:49.859Z,23.84
2022-12-04T00:28:19.888Z,23.84
2022-12-04T00:28:49.857Z,23.85
2022-12-04T00:29:19.976Z,23.85
2022-12-04T00:29:49.968Z,23.84
2022-12-04T00:30:20.083Z,23.87
2022-12-04T00:30:50.100Z,23.84
2022-12-04T00:31:20.248Z,23.87
2022-12-04T00:31:50.187Z,23.84
2022-12-04T00:32:20.214Z,23.85
2022-12-04T00:32:50.259Z,23.84
2022-12-04T00:33:20.300Z,23.87
2022-12-04T00:33:50.348Z,23.85
2022-12-04T00:34:20.382Z,23.85
2022-12-04T00:34:50.414Z,23.85
2022-12-04T00:35:20.440Z,23.85
2022-12-04T00:35:50.476Z,23.85
2022-12-04T00:36:20.507Z,23.87
2022-12-04T00:36:50.543Z,23.84
2022-12-04T00:37:20.571Z,23.87
2022-12-04T00:37:50.601Z,23.84
2022-12-04T00:38:20.641Z,23.87
2022-12-04T00:38:50.675Z,23.87
2022-12-04T00:39:20.710Z,23.84
2022-12-04T00:39:50.750Z,23.87
2022-12-04T00:40:20.775Z,23.84
2022-12-04T00:40:50.806Z,23.84
2022-12-04T00:41:20.859Z,23.87
2022-12-04T00:41:50.896Z,23.85
2022-12-04T00:42:20.920Z,23.84
2022-12-04T00:42:50.948Z,23.84
2022-12-04T00:43:20.983Z,23.85
2022-12-04T00:43:51.036Z,23.85
2022-12-04T00:44:21.048Z,23.87
2022-12-04T00:44:51.080Z,23.85
2022-12-04T00:45:21.112Z,23.84
2022-12-04T00:45:51.243Z,23.84
2022-12-04T00:46:21.252Z,23.87
2022-12-04T00:46:51.277Z,23.84
2022-12-04T00:47:21.314Z,23.84
2022-12-04T00:47:51.349Z,23.84
2022-12-04T00:48:21.387Z,23.88
2022-12-04T00:48:51.416Z,23.84
2022-12-04T00:49:21.444Z,23.85
2022-12-04T00:49:51.470Z,23.84
2022-12-04T00:50:21.503Z,23.85
2022-12-04T00:50:51.541Z,23.85
2022-12-04T00:51:21.588Z,23.87
2022-12-04T00:51:51.615Z,23.85
2022-12-04T00:52:21.654Z,23.84
2022-12-04T00:52:51.684Z,23.85
2022-12-04T00:53:21.747Z,23.84
2022-12-04T00:53:51.789Z,23.84
2022-12-04T00:54:21.819Z,23.85
2022-12-04T00:54:51.853Z,23.85
2022-12-04T00:55:21.879Z,23.84
2022-12-04T00:55:51.916Z,23.82
2022-12-04T00:56:21.950Z,23.84
2022-12-04T00:56:51.979Z,23.84
2022-12-04T00:57:22.005Z,23.85
2022-12-04T00:57:55.758Z,23.84
2022-12-04T00:58:22.091Z,23.84
2022-12-04T00:58:52.120Z,23.85
2022-12-04T00:59:22.176Z,23.82
2022-12-04T00:59:52.367Z,23.85
2022-12-04T01:00:22.241Z,23.82
2022-12-04T01:00:52.367Z,23.85
2022-12-04T01:01:22.412Z,23.82
2022-12-04T01:01:52.316Z,23.81
2022-12-04T01:02:22.357Z,23.85
2022-12-04T01:02:52.417Z,23.84
2022-12-04T01:03:22.515Z,23.82
2022-12-04T01:03:52.542Z,23.85
2022-12-04T01:04:22.571Z,23.82
2022-12-04T01:04:52.602Z,23.84
2022-12-04T01:05:22.631Z,23.82
2022-12-04T01:05:52.685Z,23.82
2022-12-04T01:06:22.731Z,23.85
2022-12-04T01:06:52.767Z,23.82
2022-12-04T01:07:22.796Z,23.82
2022-12-04T01:07:52.895Z,23.85
2022-12-04T01:08:22.916Z,23.84
2022-12-04T01:08:52.944Z,23.84
2022-12-04T01:09:22.975Z,23.82
2022-12-04T01:09:53.239Z,23.84
2022-12-04T01:10:23.037Z,23.84
2022-12-04T01:10:53.082Z,23.84
2022-12-04T01:11:23.117Z,23.85
2022-12-04T01:11:53.148Z,23.82
2022-12-04T01:12:23.175Z,23.84
2022-12-04T01:12:53.215Z,23.84
2022-12-04T01:13:23.253Z,23.82
2022-12-04T01:13:53.280Z,23.81
2022-12-04T01:14:23.323Z,23.85
2022-12-04T01:14:53.372Z,23.82
2022-12-04T01:15:23.387Z,23.82
2022-12-04T01:15:53.405Z,23.82
2022-12-04T01:16:23.541Z,23.82
2022-12-04T01:16:53.513Z,23.84
2022-12-04T01:17:23.558Z,23.82
2022-12-04T01:17:53.588Z,23.81
2022-12-04T01:18:23.622Z,23.81
2022-12-04T01:18:53.651Z,23.84
2022-12-04T01:19:23.685Z,23.84
2022-12-04T01:19:54.060Z,23.84
2022-12-04T01:20:23.717Z,23.84
2022-12-04T01:20:53.742Z,23.81
2022-12-04T01:21:23.865Z,23.81
2022-12-04T01:21:53.857Z,23.82
2022-12-04T01:22:23.854Z,23.81
2022-12-04T01:22:53.845Z,23.85
2022-12-04T01:23:23.844Z,23.82
2022-12-04T01:23:53.957Z,23.81
2022-12-04T01:24:24.076Z,23.82
2022-12-04T01:24:54.071Z,23.84
2022-12-04T01:25:24.064Z,23.84
2022-12-04T01:25:54.066Z,23.82
2022-12-04T01:26:24.060Z,23.81
2022-12-04T01:26:54.051Z,23.81
2022-12-04T01:27:24.053Z,23.81
2022-12-04T01:27:54.050Z,23.81
2022-12-04T01:28:24.166Z,23.81
2022-12-04T01:28:54.158Z,23.81
2022-12-04T01:29:24.154Z,23.81
2022-12-04T01:29:54.673Z,23.81
2022-12-04T01:30:24.421Z,23.81
2022-12-04T01:30:54.396Z,23.79
2022-12-04T01:31:24.513Z,23.82
2022-12-04T01:31:54.545Z,23.81
2022-12-04T01:32:24.453Z,23.81
2022-12-04T01:32:54.481Z,23.82
2022-12-04T01:33:24.515Z,23.82
2022-12-04T01:33:54.541Z,23.82
2022-12-04T01:34:24.573Z,23.78
2022-12-04T01:34:54.598Z,23.82
2022-12-04T01:35:24.629Z,23.81
2022-12-04T01:35:54.659Z,23.81
2022-12-04T01:36:24.698Z,23.81
2022-12-04T01:36:54.729Z,23.81
2022-12-04T01:37:24.765Z,23.81
2022-12-04T01:37:54.794Z,23.82
2022-12-04T01:38:24.828Z,23.81
2022-12-04T01:38:54.869Z,23.79
2022-12-04T01:39:24.906Z,23.82
2022-12-04T01:39:55.285Z,23.81
2022-12-04T01:40:24.978Z,23.82
2022-12-04T01:40:55.011Z,23.82
2022-12-04T01:41:25.046Z,23.79
2022-12-04T01:41:55.080Z,23.81
2022-12-04T01:42:25.109Z,23.81
2022-12-04T01:42:55.143Z,23.81
2022-12-04T01:43:25.179Z,23.79
2022-12-04T01:43:55.226Z,23.79
2022-12-04T01:44:25.260Z,23.81
2022-12-04T01:44:55.287Z,23.78
2022-12-04T01:45:25.392Z,23.81
2022-12-04T01:45:55.614Z,23.81
2022-12-04T01:46:25.548Z,23.82
2022-12-04T01:46:55.439Z,23.81
2022-12-04T01:47:25.477Z,23.82
2022-12-04T01:47:55.503Z,23.81
2022-12-04T01:48:25.536Z,23.82
2022-12-04T01:48:55.579Z,23.79
2022-12-04T01:49:25.596Z,23.79
2022-12-04T01:49:55.936Z,23.81
2022-12-04T01:50:25.642Z,23.79
2022-12-04T01:50:55.677Z,23.81
2022-12-04T01:51:25.709Z,23.81
2022-12-04T01:51:55.740Z,23.82
2022-12-04T01:52:25.770Z,23.79
2022-12-04T01:52:55.802Z,23.81
2022-12-04T01:53:25.840Z,23.82
2022-12-04T01:53:55.893Z,23.81
2022-12-04T01:54:25.898Z,23.81
2022-12-04T01:54:55.927Z,23.81
2022-12-04T01:55:25.962Z,23.81
2022-12-04T01:55:55.995Z,23.79
2022-12-04T01:56:26.033Z,23.79
2022-12-04T01:56:56.065Z,23.82
2022-12-04T01:57:26.102Z,23.79
2022-12-04T01:57:56.137Z,23.79
2022-12-04T01:58:26.170Z,23.82
2022-12-04T01:58:56.204Z,23.81
2022-12-04T01:59:26.246Z,23.82
2022-12-04T01:59:56.626Z,23.79
2022-12-04T02:00:26.279Z,23.79
2022-12-04T02:00:58.483Z,23.82
2022-12-04T02:01:26.409Z,23.79
2022-12-04T02:01:56.606Z,23.81
2022-12-04T02:02:26.726Z,23.82
2022-12-04T02:02:56.659Z,23.81
2022-12-04T02:03:26.667Z,23.79
2022-12-04T02:03:56.701Z,23.81
2022-12-04T02:04:26.738Z,23.81
2022-12-04T02:04:56.769Z,23.79
2022-12-04T02:05:26.801Z,23.81
2022-12-04T02:05:56.840Z,23.81
2022-12-04T02:06:26.868Z,23.79
2022-12-04T02:06:56.907Z,23.81
2022-12-04T02:07:26.963Z,23.82
2022-12-04T02:07:57.011Z,23.82
2022-12-04T02:08:27.075Z,23.82
2022-12-04T02:08:57.112Z,23.81
2022-12-04T02:09:27.312Z,23.81
2022-12-04T02:09:57.544Z,23.81
2022-12-04T02:10:27.241Z,23.82
2022-12-04T02:10:57.270Z,23.82
2022-12-04T02:11:27.302Z,23.81
2022-12-04T02:11:57.336Z,23.79
2022-12-04T02:12:27.365Z,23.79
2022-12-04T02:12:57.398Z,23.79
2022-12-04T02:13:27.432Z,23.82
2022-12-04T02:13:57.460Z,23.79
2022-12-04T02:14:27.503Z,23.81
2022-12-04T02:14:57.541Z,23.81
2022-12-04T02:15:27.567Z,23.79
2022-12-04T02:15:57.600Z,23.79
2022-12-04T02:16:27.703Z,23.81
2022-12-04T02:16:57.839Z,23.79
2022-12-04T02:17:27.761Z,23.81
2022-12-04T02:17:57.792Z,23.81
2022-12-04T02:18:27.822Z,23.82
2022-12-04T02:18:57.852Z,23.77
2022-12-04T02:19:27.888Z,23.79
2022-12-04T02:19:58.158Z,23.82
2022-12-04T02:20:27.959Z,23.77
2022-12-04T02:20:57.982Z,23.81
2022-12-04T02:21:28.096Z,23.79
2022-12-04T02:21:58.213Z,23.78
2022-12-04T02:22:28.209Z,23.78
2022-12-04T02:22:58.205Z,23.79
2022-12-04T02:23:28.199Z,23.79
2022-12-04T02:23:58.196Z,23.81
2022-12-04T02:24:28.318Z,23.77
2022-12-04T02:24:58.308Z,23.78
2022-12-04T02:25:28.304Z,23.79
2022-12-04T02:25:58.424Z,23.79
2022-12-04T02:26:28.553Z,23.81
2022-12-04T02:26:58.551Z,23.81
2022-12-04T02:27:28.548Z,23.81
2022-12-04T02:27:58.548Z,23.79
2022-12-04T02:28:28.538Z,23.79
2022-12-04T02:28:58.668Z,23.78
2022-12-04T02:29:28.665Z,23.79
2022-12-04T02:29:58.680Z,23.81
2022-12-04T02:30:28.700Z,23.78
2022-12-04T02:30:58.799Z,23.79
2022-12-04T02:31:28.730Z,23.79
2022-12-04T02:31:58.763Z,23.79
2022-12-04T02:32:28.835Z,23.79
2022-12-04T02:32:58.839Z,23.81
2022-12-04T02:33:28.868Z,23.79
2022-12-04T02:33:58.904Z,23.78
2022-12-04T02:34:28.954Z,23.81
2022-12-04T02:34:58.992Z,23.78
2022-12-04T02:35:29.021Z,23.79
2022-12-04T02:35:59.058Z,23.78
2022-12-04T02:36:29.190Z,23.81
2022-12-04T02:36:59.096Z,23.78
2022-12-04T02:37:29.128Z,23.82
2022-12-04T02:37:59.159Z,23.79
2022-12-04T02:38:29.194Z,23.81
2022-12-04T02:38:59.233Z,23.79
2022-12-04T02:39:29.259Z,23.77
2022-12-04T02:39:59.362Z,23.79
2022-12-04T02:40:29.367Z,23.78
2022-12-04T02:40:59.400Z,23.78
2022-12-04T02:41:29.442Z,23.77
2022-12-04T02:41:59.474Z,23.77
2022-12-04T02:42:29.502Z,23.78
2022-12-04T02:42:59.542Z,23.79
2022-12-04T02:43:29.567Z,23.79
2022-12-04T02:43:59.600Z,23.78
2022-12-04T02:44:29.634Z,23.79
2022-12-04T02:44:59.672Z,23.75
2022-12-04T02:45:29.783Z,23.78
2022-12-04T02:45:59.922Z,23.78
2022-12-04T02:46:29.983Z,23.77
2022-12-04T02:46:59.899Z,23.81
2022-12-04T02:47:29.929Z,23.79
2022-12-04T02:47:59.993Z,23.78
2022-12-04T02:48:30.003Z,23.81
2022-12-04T02:49:00.040Z,23.78
2022-12-04T02:49:30.066Z,23.79
2022-12-04T02:50:00.149Z,23.79
2022-12-04T02:50:30.223Z,23.77
2022-12-04T02:51:00.257Z,23.79
2022-12-04T02:51:30.311Z,23.79
2022-12-04T02:52:00.341Z,23.79
2022-12-04T02:52:30.370Z,23.78
2022-12-04T02:53:00.439Z,23.79
2022-12-04T02:53:30.455Z,23.78
2022-12-04T02:54:00.499Z,23.78
2022-12-04T02:54:30.550Z,23.79
2022-12-04T02:55:05.322Z,23.78
2022-12-04T02:55:30.625Z,23.78
2022-12-04T02:56:00.670Z,23.75
2022-12-04T02:56:30.736Z,23.78
2022-12-04T02:57:00.773Z,23.78
2022-12-04T02:57:30.823Z,23.77
2022-12-04T02:58:00.883Z,23.77
2022-12-04T02:58:30.919Z,23.75
2022-12-04T02:59:00.952Z,23.75
2022-12-04T02:59:30.979Z,23.78
2022-12-04T03:00:01.039Z,23.78
2022-12-04T03:00:31.071Z,23.74
2022-12-04T03:01:01.159Z,23.77
2022-12-04T03:01:31.265Z,23.77
2022-12-04T03:02:01.241Z,23.79
2022-12-04T03:02:31.372Z,23.77
2022-12-04T03:03:01.370Z,23.77
2022-12-04T03:03:31.409Z,23.74
2022-12-04T03:04:01.416Z,23.78
2022-12-04T03:04:31.447Z,23.78
2022-12-04T03:05:01.491Z,23.77
2022-12-04T03:05:31.551Z,23.75
2022-12-04T03:06:01.546Z,23.77
2022-12-04T03:06:31.586Z,23.77
2022-12-04T03:07:01.618Z,23.75
2022-12-04T03:07:31.685Z,23.77
2022-12-04T03:08:01.798Z,23.77
2022-12-04T03:08:31.827Z,23.78
2022-12-04T03:09:01.871Z,23.77
2022-12-04T03:09:31.894Z,23.75
2022-12-04T03:10:01.924Z,23.75
2022-12-04T03:10:31.947Z,23.75
2022-12-04T03:11:01.981Z,23.74
2022-12-04T03:11:32.078Z,23.78
2022-12-04T03:12:02.102Z,23.75
2022-12-04T03:12:32.134Z,23.75
2022-12-04T03:13:02.165Z,23.77
2022-12-04T03:13:32.196Z,23.77
2022-12-04T03:14:02.232Z,23.77
2022-12-04T03:14:32.266Z,23.75
2022-12-04T03:15:02.299Z,23.75
2022-12-04T03:15:32.346Z,23.75
2022-12-04T03:16:02.381Z,23.77
2022-12-04T03:16:32.447Z,23.75
2022-12-04T03:17:02.538Z,23.74
2022-12-04T03:17:32.671Z,23.75
2022-12-04T03:18:02.669Z,23.77
2022-12-04T03:18:32.717Z,23.77
2022-12-04T03:19:02.776Z,23.78
2022-12-04T03:19:32.775Z,23.77
2022-12-04T03:20:02.806Z,23.77
2022-12-04T03:20:32.840Z,23.77
2022-12-04T03:21:02.853Z,23.78
2022-12-04T03:21:32.968Z,23.77
2022-12-04T03:22:02.964Z,23.77
2022-12-04T03:22:32.960Z,23.75
2022-12-04T03:23:03.092Z,23.74
2022-12-04T03:23:33.080Z,23.75
2022-12-04T03:24:03.073Z,23.74
2022-12-04T03:24:33.191Z,23.75
2022-12-04T03:25:03.193Z,23.77
2022-12-04T03:25:33.185Z,23.77
2022-12-04T03:26:03.313Z,23.75
2022-12-04T03:26:33.315Z,23.77
2022-12-04T03:27:03.308Z,23.75
2022-12-04T03:27:33.424Z,23.77
2022-12-04T03:28:03.539Z,23.75
2022-12-04T03:28:33.654Z,23.75
2022-12-04T03:29:03.772Z,23.75
2022-12-04T03:29:33.887Z,23.75
2022-12-04T03:30:03.884Z,23.74
2022-12-04T03:30:33.966Z,23.75
2022-12-04T03:31:04.014Z,23.78
2022-12-04T03:31:34.048Z,23.77
2022-12-04T03:32:04.072Z,23.77
2022-12-04T03:32:34.098Z,23.75
2022-12-04T03:33:04.132Z,23.72
2022-12-04T03:33:34.172Z,23.75
2022-12-04T03:34:04.194Z,23.77
2022-12-04T03:34:34.338Z,23.75
2022-12-04T03:35:04.340Z,23.75
2022-12-04T03:35:34.369Z,23.72
2022-12-04T03:36:04.402Z,23.75
2022-12-04T03:36:34.434Z,23.74
2022-12-04T03:37:04.467Z,23.74
2022-12-04T03:37:34.496Z,23.75
2022-12-04T03:38:04.534Z,23.75
2022-12-04T03:38:34.557Z,23.77
2022-12-04T03:39:04.587Z,23.75
2022-12-04T03:39:34.620Z,23.75
2022-12-04T03:40:04.656Z,23.77
2022-12-04T03:40:34.679Z,23.75
2022-12-04T03:41:04.717Z,23.75
2022-12-04T03:41:34.748Z,23.75
2022-12-04T03:42:04.777Z,23.77
2022-12-04T03:42:34.807Z,23.77
2022-12-04T03:43:04.848Z,23.74
2022-12-04T03:43:34.871Z,23.77
2022-12-04T03:44:04.913Z,23.75
2022-12-04T03:44:34.941Z,23.74
2022-12-04T03:45:04.973Z,23.75
2022-12-04T03:45:35.013Z,23.77
2022-12-04T03:46:05.171Z,23.75
2022-12-04T03:46:35.157Z,23.74
2022-12-04T03:47:05.192Z,23.75
2022-12-04T03:47:35.224Z,23.78
2022-12-04T03:48:05.254Z,23.77
2022-12-04T03:48:35.284Z,23.74
2022-12-04T03:49:05.321Z,23.75
2022-12-04T03:49:35.353Z,23.75
2022-12-04T03:50:05.414Z,23.74
2022-12-04T03:50:35.453Z,23.74
2022-12-04T03:51:05.452Z,23.72
2022-12-04T03:51:35.482Z,23.77
2022-12-04T03:52:05.514Z,23.74
2022-12-04T03:52:35.550Z,23.74
2022-12-04T03:53:05.580Z,23.75
2022-12-04T03:53:35.611Z,23.74
2022-12-04T03:54:05.644Z,23.75
2022-12-04T03:54:35.669Z,23.77
2022-12-04T03:55:05.714Z,23.75
2022-12-04T03:55:35.748Z,23.72
2022-12-04T03:56:05.775Z,23.75
2022-12-04T03:56:35.806Z,23.77
2022-12-04T03:57:05.839Z,23.75
2022-12-04T03:57:35.869Z,23.74
2022-12-04T03:58:05.904Z,23.75
2022-12-04T03:58:35.942Z,23.72
2022-12-04T03:59:05.977Z,23.72
2022-12-04T03:59:36.005Z,23.74
2022-12-04T04:00:06.054Z,23.75
2022-12-04T04:00:36.081Z,23.74
2022-12-04T04:01:06.211Z,23.77
2022-12-04T04:01:36.193Z,23.72
2022-12-04T04:02:06.284Z,23.74
2022-12-04T04:02:36.303Z,23.74
2022-12-04T04:03:06.356Z,23.71
2022-12-04T04:03:36.261Z,23.74
2022-12-04T04:04:06.290Z,23.75
2022-12-04T04:04:36.329Z,23.74
2022-12-04T04:05:06.361Z,23.71
2022-12-04T04:05:36.415Z,23.75
2022-12-04T04:06:06.421Z,23.72
2022-12-04T04:06:36.455Z,23.74
2022-12-04T04:07:06.478Z,23.75
2022-12-04T04:07:36.689Z,23.72
2022-12-04T04:08:06.700Z,23.72
2022-12-04T04:08:36.708Z,23.74
2022-12-04T04:09:06.740Z,23.75
2022-12-04T04:09:36.773Z,23.74
2022-12-04T04:10:06.805Z,23.74
2022-12-04T04:10:36.870Z,23.74
2022-12-04T04:11:06.903Z,23.75
2022-12-04T04:11:36.937Z,23.75
2022-12-04T04:12:06.965Z,23.74
2022-12-04T04:12:36.998Z,23.74
2022-12-04T04:13:07.032Z,23.74
2022-12-04T04:13:37.060Z,23.72
2022-12-04T04:14:07.090Z,23.74
2022-12-04T04:14:37.122Z,23.72
2022-12-04T04:15:07.166Z,23.74
2022-12-04T04:15:37.228Z,23.72
2022-12-04T04:16:07.340Z,23.71
2022-12-04T04:16:37.367Z,23.72
2022-12-04T04:17:07.399Z,23.75
2022-12-04T04:17:38.896Z,23.75
2022-12-04T04:18:07.466Z,23.74
2022-12-04T04:18:37.499Z,23.75
2022-12-04T04:19:07.542Z,23.74
2022-12-04T04:19:37.568Z,23.72
2022-12-04T04:20:07.603Z,23.74
2022-12-04T04:20:37.638Z,23.72
2022-12-04T04:21:07.673Z,23.72
2022-12-04T04:21:37.640Z,23.72
2022-12-04T04:22:07.642Z,23.72
2022-12-04T04:22:37.754Z,23.74
2022-12-04T04:23:07.750Z,23.74
2022-12-04T04:23:37.757Z,23.75
2022-12-04T04:24:07.784Z,23.72
2022-12-04T04:24:37.783Z,23.72
2022-12-04T04:25:07.795Z,23.74
2022-12-04T04:25:37.787Z,23.74
2022-12-04T04:26:07.776Z,23.74
2022-12-04T04:26:37.772Z,23.74
2022-12-04T04:27:07.890Z,23.71
2022-12-04T04:27:38.010Z,23.72
2022-12-04T04:28:08.008Z,23.71
2022-12-04T04:28:38.128Z,23.69
2022-12-04T04:29:08.124Z,23.71
2022-12-04T04:29:38.123Z,23.71
2022-12-04T04:30:08.136Z,23.71
2022-12-04T04:30:38.132Z,23.71
2022-12-04T04:31:08.167Z,23.72
2022-12-04T04:31:38.266Z,23.71
2022-12-04T04:32:08.193Z,23.72
2022-12-04T04:32:38.236Z,23.74
2022-12-04T04:33:08.286Z,23.72
2022-12-04T04:33:38.321Z,23.71
2022-12-04T04:34:08.356Z,23.72
2022-12-04T04:34:38.392Z,23.74
2022-12-04T04:35:08.433Z,23.69
2022-12-04T04:35:38.476Z,23.71
2022-12-04T04:36:08.512Z,23.72
2022-12-04T04:36:38.572Z,23.71
2022-12-04T04:37:08.573Z,23.69
2022-12-04T04:37:38.612Z,23.71
2022-12-04T04:38:08.643Z,23.71
2022-12-04T04:38:38.679Z,23.69
2022-12-04T04:39:08.711Z,23.72
2022-12-04T04:39:38.742Z,23.69
2022-12-04T04:40:08.774Z,23.72
2022-12-04T04:40:38.820Z,23.74
2022-12-04T04:41:08.856Z,23.71
2022-12-04T04:41:38.893Z,23.69
2022-12-04T04:42:08.926Z,23.69
2022-12-04T04:42:38.971Z,23.69
2022-12-04T04:43:09.008Z,23.69
2022-12-04T04:43:39.046Z,23.68
2022-12-04T04:44:09.101Z,23.71
2022-12-04T04:44:39.104Z,23.69
2022-12-04T04:45:09.146Z,23.68
2022-12-04T04:45:39.173Z,23.68
2022-12-04T04:46:09.250Z,23.71
2022-12-04T04:46:39.324Z,23.69
2022-12-04T04:47:09.273Z,23.71
2022-12-04T04:47:39.301Z,23.69
2022-12-04T04:48:09.339Z,23.71
2022-12-04T04:48:39.376Z,23.71
2022-12-04T04:49:09.405Z,23.71
2022-12-04T04:49:39.439Z,23.68
2022-12-04T04:50:09.476Z,23.71
2022-12-04T04:50:39.515Z,23.69
2022-12-04T04:51:09.553Z,23.69
2022-12-04T04:51:39.587Z,23.71
2022-12-04T04:52:09.646Z,23.69
2022-12-04T04:52:39.651Z,23.68
2022-12-04T04:53:09.688Z,23.71
2022-12-04T04:53:39.722Z,23.71
2022-12-04T04:54:09.758Z,23.68
2022-12-04T04:54:39.791Z,23.69
2022-12-04T04:55:09.823Z,23.69
2022-12-04T04:55:39.877Z,23.71
2022-12-04T04:56:09.911Z,23.69
2022-12-04T04:56:39.945Z,23.71
2022-12-04T04:57:09.979Z,23.71
2022-12-04T04:57:40.015Z,23.69
2022-12-04T04:58:10.057Z,23.69
2022-12-04T04:58:40.094Z,23.69
2022-12-04T04:59:10.129Z,23.69
2022-12-04T04:59:40.166Z,23.69
2022-12-04T05:00:10.225Z,23.68
2022-12-04T05:00:40.251Z,23.68
2022-12-04T05:01:10.283Z,23.69
2022-12-04T05:01:40.409Z,23.69
2022-12-04T05:02:10.435Z,23.72
2022-12-04T05:02:40.399Z,23.68
2022-12-04T05:03:10.572Z,23.69
2022-12-04T05:03:40.464Z,23.69
2022-12-04T05:04:10.503Z,23.71
2022-12-04T05:04:40.536Z,23.71
2022-12-04T05:05:10.598Z,23.68
2022-12-04T05:05:40.629Z,23.69
2022-12-04T05:06:10.657Z,23.69
2022-12-04T05:06:40.691Z,23.69
2022-12-04T05:07:10.732Z,23.71
2022-12-04T05:07:40.836Z,23.69
2022-12-04T05:08:10.977Z,23.68
2022-12-04T05:08:40.938Z,23.69
2022-12-04T05:09:10.962Z,23.69
2022-12-04T05:09:41.511Z,23.69
2022-12-04T05:10:11.008Z,23.69
2022-12-04T05:10:41.031Z,23.69
2022-12-04T05:11:11.064Z,23.71
2022-12-04T05:11:41.101Z,23.71
2022-12-04T05:12:11.133Z,23.71
2022-12-04T05:12:41.170Z,23.71
2022-12-04T05:13:11.196Z,23.71
2022-12-04T05:13:41.227Z,23.68
2022-12-04T05:14:11.257Z,23.71
2022-12-04T05:14:41.578Z,23.71
2022-12-04T05:15:11.364Z,23.68
2022-12-04T05:15:41.487Z,23.68
2022-12-04T05:16:11.414Z,23.69
2022-12-04T05:16:41.530Z,23.69
2022-12-04T05:17:13.006Z,23.68
2022-12-04T05:17:41.480Z,23.69
2022-12-04T05:18:11.518Z,23.68
2022-12-04T05:18:41.539Z,23.69
2022-12-04T05:19:11.573Z,23.71
2022-12-04T05:19:41.623Z,23.69
2022-12-04T05:20:11.658Z,23.68
2022-12-04T05:20:41.692Z,23.69
2022-12-04T05:21:11.688Z,23.68
2022-12-04T05:21:41.806Z,23.66
2022-12-04T05:22:11.801Z,23.66
2022-12-04T05:22:41.923Z,23.71
2022-12-04T05:23:12.063Z,23.66
2022-12-04T05:23:42.156Z,23.69
2022-12-04T05:24:12.271Z,23.68
2022-12-04T05:24:42.403Z,23.68
2022-12-04T05:25:12.435Z,23.66
2022-12-04T05:25:42.396Z,23.66
2022-12-04T05:26:12.517Z,23.68
2022-12-04T05:26:42.631Z,23.69
2022-12-04T05:27:12.627Z,23.71
2022-12-04T05:27:42.751Z,23.69
2022-12-04T05:28:12.746Z,23.66
2022-12-04T05:28:42.857Z,23.68
2022-12-04T05:29:12.970Z,23.69
2022-12-04T05:29:43.139Z,23.66
2022-12-04T05:30:13.136Z,23.66
2022-12-04T05:30:43.258Z,23.65
2022-12-04T05:31:13.332Z,23.66
2022-12-04T05:31:43.499Z,23.66
2022-12-04T05:32:13.421Z,23.65
2022-12-04T05:32:43.452Z,23.68
2022-12-04T05:33:13.484Z,23.66
2022-12-04T05:33:43.520Z,23.69
2022-12-04T05:34:13.551Z,23.66
2022-12-04T05:34:43.609Z,23.66
2022-12-04T05:35:13.642Z,23.66
2022-12-04T05:35:43.677Z,23.68
2022-12-04T05:36:13.747Z,23.66
2022-12-04T05:36:43.782Z,23.68
2022-12-04T05:37:13.807Z,23.65
2022-12-04T05:37:43.844Z,23.68
2022-12-04T05:38:13.879Z,23.66
2022-12-04T05:38:43.938Z,23.69
2022-12-04T05:39:13.944Z,23.68
2022-12-04T05:39:43.976Z,23.68
2022-12-04T05:40:14.015Z,23.68
2022-12-04T05:40:44.042Z,23.66
2022-12-04T05:41:14.074Z,23.66
2022-12-04T05:41:44.109Z,23.65
2022-12-04T05:42:14.138Z,23.68
2022-12-04T05:42:44.176Z,23.66
2022-12-04T05:43:14.205Z,23.65
2022-12-04T05:43:44.248Z,23.68
2022-12-04T05:44:14.278Z,23.68
2022-12-04T05:44:44.311Z,23.66
2022-12-04T05:45:14.342Z,23.68
2022-12-04T05:45:44.378Z,23.68
2022-12-04T05:46:14.496Z,23.66
2022-12-04T05:46:44.602Z,23.66
2022-12-04T05:47:14.527Z,23.66
2022-12-04T05:47:44.556Z,23.66
2022-12-04T05:48:14.586Z,23.66
2022-12-04T05:48:44.627Z,23.66
2022-12-04T05:49:14.659Z,23.68
2022-12-04T05:49:44.685Z,23.64
2022-12-04T05:50:14.719Z,23.66
2022-12-04T05:50:44.754Z,23.66
2022-12-04T05:51:14.793Z,23.65
2022-12-04T05:51:44.831Z,23.65
2022-12-04T05:52:14.883Z,23.66
2022-12-04T05:52:44.931Z,23.65
2022-12-04T05:53:14.973Z,23.66
2022-12-04T05:53:45.034Z,23.68
2022-12-04T05:54:15.115Z,23.65
2022-12-04T05:54:45.147Z,23.62
2022-12-04T05:55:15.181Z,23.66
2022-12-04T05:55:45.213Z,23.65
2022-12-04T05:56:15.275Z,23.65
2022-12-04T05:56:45.343Z,23.64
2022-12-04T05:57:15.406Z,23.66
2022-12-04T05:57:45.429Z,23.64
2022-12-04T05:58:15.464Z,23.66
2022-12-04T05:58:45.522Z,23.65
2022-12-04T05:59:15.574Z,23.65
2022-12-04T05:59:45.641Z,23.64
2022-12-04T06:00:15.666Z,23.66
2022-12-04T06:00:45.706Z,23.65
2022-12-04T06:01:15.741Z,23.65
2022-12-04T06:01:45.836Z,23.65
2022-12-04T06:02:16.054Z,23.65
2022-12-04T06:02:46.090Z,23.64
2022-12-04T06:03:16.095Z,23.62
2022-12-04T06:03:46.061Z,23.65
2022-12-04T06:04:16.159Z,23.62
2022-12-04T06:04:46.196Z,23.64
2022-12-04T06:05:16.226Z,23.64
2022-12-04T06:05:46.256Z,23.65
2022-12-04T06:06:21.353Z,23.62
2022-12-04T06:06:46.340Z,23.62
2022-12-04T06:07:16.370Z,23.62
2022-12-04T06:07:46.516Z,23.62
2022-12-04T06:08:16.590Z,23.64
2022-12-04T06:08:46.485Z,23.65
2022-12-04T06:09:16.520Z,23.64
2022-12-04T06:09:46.574Z,23.61
2022-12-04T06:10:16.587Z,23.62
2022-12-04T06:10:46.621Z,23.62
2022-12-04T06:11:16.655Z,23.64
2022-12-04T06:11:46.686Z,23.62
2022-12-04T06:12:16.727Z,23.65
2022-12-04T06:12:46.751Z,23.61
2022-12-04T06:13:16.787Z,23.62
2022-12-04T06:13:46.814Z,23.66
2022-12-04T06:14:16.854Z,23.60
2022-12-04T06:14:46.885Z,23.64
2022-12-04T06:15:16.933Z,23.62
2022-12-04T06:15:47.006Z,23.62
2022-12-04T06:16:17.111Z,23.62
2022-12-04T06:16:47.216Z,23.64
2022-12-04T06:17:17.147Z,23.64
2022-12-04T06:17:47.173Z,23.64
2022-12-04T06:18:17.212Z,23.64
2022-12-04T06:18:47.245Z,23.62
2022-12-04T06:19:17.297Z,23.64
2022-12-04T06:19:47.394Z,23.61
2022-12-04T06:20:17.526Z,23.62
2022-12-04T06:20:47.539Z,23.64
2022-12-04T06:21:17.556Z,23.66
2022-12-04T06:21:47.553Z,23.62
2022-12-04T06:22:17.673Z,23.61
2022-12-04T06:22:47.668Z,23.62
2022-12-04T06:23:17.663Z,23.65
2022-12-04T06:23:47.779Z,23.65
2022-12-04T06:24:17.896Z,23.62
2022-12-04T06:24:47.892Z,23.64
2022-12-04T06:25:18.034Z,23.65
2022-12-04T06:25:48.124Z,23.64
2022-12-04T06:26:18.277Z,23.64
2022-12-04T06:27:25.138Z,23.62